sensor_id;sensor_type;location;lat;lon;timestamp;pressure;altitude;pressure_sealevel;temperature;humidity
7906;BME280;13291;40.472;-3.878;2023-06-05T00:00:43;53204.03;;;-139.96;52.03
7906;BME280;13291;40.472;-3.878;2023-06-05T00:03:11;53234.03;;;-139.96;52.12
7906;BME280;13291;40.472;-3.878;2023-06-05T00:05:38;53194.03;;;-139.96;52.41
7906;BME280;13291;40.472;-3.878;2023-06-05T00:08:05;53216.03;;;-139.96;52.37
7906;BME280;13291;40.472;-3.878;2023-06-05T00:10:33;53224.03;;;-139.96;52.43
7906;BME280;13291;40.472;-3.878;2023-06-05T00:13:00;53214.03;;;-139.96;52.08
7906;BME280;13291;40.472;-3.878;2023-06-05T00:15:26;53204.03;;;-139.96;52.10
7906;BME280;13291;40.472;-3.878;2023-06-05T00:17:53;53220.03;;;-139.96;52.15
7906;BME280;13291;40.472;-3.878;2023-06-05T00:20:23;53228.03;;;-139.96;52.33
7906;BME280;13291;40.472;-3.878;2023-06-05T00:22:49;53216.03;;;-139.96;52.16
7906;BME280;13291;40.472;-3.878;2023-06-05T00:25:16;53192.03;;;-139.96;52.22
7906;BME280;13291;40.472;-3.878;2023-06-05T00:27:43;53240.03;;;-139.96;52.10
7906;BME280;13291;40.472;-3.878;2023-06-05T00:30:11;53194.03;;;-139.96;52.33
7906;BME280;13291;40.472;-3.878;2023-06-05T00:32:38;53212.03;;;-139.96;52.07
7906;BME280;13291;40.472;-3.878;2023-06-05T00:35:06;53198.03;;;-139.96;51.91
7906;BME280;13291;40.472;-3.878;2023-06-05T00:37:35;53218.03;;;-139.96;52.05
7906;BME280;13291;40.472;-3.878;2023-06-05T00:40:03;53204.03;;;-139.96;51.61
7906;BME280;13291;40.472;-3.878;2023-06-05T00:42:30;53230.03;;;-139.96;51.37
7906;BME280;13291;40.472;-3.878;2023-06-05T00:44:57;53194.03;;;-139.96;51.51
7906;BME280;13291;40.472;-3.878;2023-06-05T00:47:23;53186.03;;;-139.96;51.64
7906;BME280;13291;40.472;-3.878;2023-06-05T00:49:50;53216.03;;;-139.96;51.96
7906;BME280;13291;40.472;-3.878;2023-06-05T00:52:17;53196.03;;;-139.96;51.69
7906;BME280;13291;40.472;-3.878;2023-06-05T00:54:46;53212.03;;;-139.96;51.39
7906;BME280;13291;40.472;-3.878;2023-06-05T00:57:13;53208.03;;;-139.96;51.61
7906;BME280;13291;40.472;-3.878;2023-06-05T00:59:40;53240.03;;;-139.96;51.63
7906;BME280;13291;40.472;-3.878;2023-06-05T01:02:10;53248.03;;;-139.96;51.72
7906;BME280;13291;40.472;-3.878;2023-06-05T01:04:38;53226.03;;;-139.96;51.37
7906;BME280;13291;40.472;-3.878;2023-06-05T01:07:06;53246.03;;;-139.96;51.62
7906;BME280;13291;40.472;-3.878;2023-06-05T01:09:34;53212.03;;;-139.96;51.58
7906;BME280;13291;40.472;-3.878;2023-06-05T01:12:07;53222.03;;;-139.96;51.55
7906;BME280;13291;40.472;-3.878;2023-06-05T01:14:35;53190.03;;;-139.96;51.64
7906;BME280;13291;40.472;-3.878;2023-06-05T01:17:07;53204.03;;;-139.96;51.45
7906;BME280;13291;40.472;-3.878;2023-06-05T01:19:36;53202.03;;;-139.96;51.42
7906;BME280;13291;40.472;-3.878;2023-06-05T01:22:05;53202.03;;;-139.96;51.40
7906;BME280;13291;40.472;-3.878;2023-06-05T01:24:33;53206.03;;;-139.96;50.90
7906;BME280;13291;40.472;-3.878;2023-06-05T01:27:05;53202.03;;;-139.96;51.01
7906;BME280;13291;40.472;-3.878;2023-06-05T01:29:38;53176.03;;;-139.96;50.87
7906;BME280;13291;40.472;-3.878;2023-06-05T01:32:12;53218.03;;;-139.96;50.56
7906;BME280;13291;40.472;-3.878;2023-06-05T01:34:42;53186.03;;;-139.96;50.56
7906;BME280;13291;40.472;-3.878;2023-06-05T01:37:11;53210.03;;;-139.96;50.46
7906;BME280;13291;40.472;-3.878;2023-06-05T01:39:42;53180.03;;;-139.96;50.52
7906;BME280;13291;40.472;-3.878;2023-06-05T01:42:10;53194.03;;;-139.96;50.39
7906;BME280;13291;40.472;-3.878;2023-06-05T01:44:38;53186.03;;;-139.96;50.59
7906;BME280;13291;40.472;-3.878;2023-06-05T01:47:06;53206.03;;;-139.96;50.61
7906;BME280;13291;40.472;-3.878;2023-06-05T01:49:34;53216.03;;;-139.96;51.01
7906;BME280;13291;40.472;-3.878;2023-06-05T01:52:01;53186.03;;;-139.96;51.03
7906;BME280;13291;40.472;-3.878;2023-06-05T01:54:28;53148.00;;;-139.96;51.12
7906;BME280;13291;40.472;-3.878;2023-06-05T01:57:00;53190.03;;;-139.96;51.17
7906;BME280;13291;40.472;-3.878;2023-06-05T01:59:29;53188.03;;;-139.96;51.28
7906;BME280;13291;40.472;-3.878;2023-06-05T02:01:57;53200.03;;;-139.96;51.92
7906;BME280;13291;40.472;-3.878;2023-06-05T02:04:24;53204.03;;;-139.96;52.06
7906;BME280;13291;40.472;-3.878;2023-06-05T02:06:53;53198.03;;;-139.96;52.17
7906;BME280;13291;40.472;-3.878;2023-06-05T02:09:20;53228.03;;;-139.96;52.19
7906;BME280;13291;40.472;-3.878;2023-06-05T02:11:46;53232.03;;;-139.96;52.19
7906;BME280;13291;40.472;-3.878;2023-06-05T02:14:15;53236.03;;;-139.96;52.17
7906;BME280;13291;40.472;-3.878;2023-06-05T02:16:42;53244.03;;;-139.96;52.54
7906;BME280;13291;40.472;-3.878;2023-06-05T02:19:08;53234.03;;;-139.96;52.46
7906;BME280;13291;40.472;-3.878;2023-06-05T02:21:36;53230.03;;;-139.96;52.83
7906;BME280;13291;40.472;-3.878;2023-06-05T02:24:03;53256.03;;;-139.96;53.08
7906;BME280;13291;40.472;-3.878;2023-06-05T02:26:32;53212.03;;;-139.96;53.09
7906;BME280;13291;40.472;-3.878;2023-06-05T02:29:00;53220.03;;;-139.96;53.12
7906;BME280;13291;40.472;-3.878;2023-06-05T02:31:29;53254.03;;;-139.96;53.06
7906;BME280;13291;40.472;-3.878;2023-06-05T02:33:56;53254.03;;;-139.96;53.20
7906;BME280;13291;40.472;-3.878;2023-06-05T02:36:23;53218.03;;;-139.96;52.57
7906;BME280;13291;40.472;-3.878;2023-06-05T02:38:50;53266.03;;;-139.96;52.45
7906;BME280;13291;40.472;-3.878;2023-06-05T02:41:18;53240.03;;;-139.96;52.44
7906;BME280;13291;40.472;-3.878;2023-06-05T02:43:45;53202.03;;;-139.96;52.64
7906;BME280;13291;40.472;-3.878;2023-06-05T02:46:11;53244.03;;;-139.96;52.76
7906;BME280;13291;40.472;-3.878;2023-06-05T02:48:40;53244.03;;;-139.96;52.59
7906;BME280;13291;40.472;-3.878;2023-06-05T02:51:07;53226.03;;;-139.96;52.51
7906;BME280;13291;40.472;-3.878;2023-06-05T02:53:36;53240.03;;;-139.96;53.00
7906;BME280;13291;40.472;-3.878;2023-06-05T02:56:03;53230.03;;;-139.96;52.93
7906;BME280;13291;40.472;-3.878;2023-06-05T02:58:30;53260.03;;;-139.96;52.78
7906;BME280;13291;40.472;-3.878;2023-06-05T03:00:59;53212.03;;;-139.96;52.74
7906;BME280;13291;40.472;-3.878;2023-06-05T03:03:28;53228.03;;;-139.96;52.92
7906;BME280;13291;40.472;-3.878;2023-06-05T03:05:58;53242.03;;;-139.96;52.93
7906;BME280;13291;40.472;-3.878;2023-06-05T03:08:30;53220.03;;;-139.96;52.97
7906;BME280;13291;40.472;-3.878;2023-06-05T03:10:57;53198.03;;;-139.96;53.03
7906;BME280;13291;40.472;-3.878;2023-06-05T03:13:24;53198.03;;;-139.96;53.22
7906;BME280;13291;40.472;-3.878;2023-06-05T03:15:51;53208.03;;;-139.96;53.00
7906;BME280;13291;40.472;-3.878;2023-06-05T03:18:19;53216.03;;;-139.96;53.16
7906;BME280;13291;40.472;-3.878;2023-06-05T03:20:47;53242.03;;;-139.96;53.05
7906;BME280;13291;40.472;-3.878;2023-06-05T03:23:16;53226.03;;;-139.96;53.13
7906;BME280;13291;40.472;-3.878;2023-06-05T03:25:43;53190.03;;;-139.96;53.39
7906;BME280;13291;40.472;-3.878;2023-06-05T03:28:11;53246.03;;;-139.96;53.41
7906;BME280;13291;40.472;-3.878;2023-06-05T03:30:38;53254.03;;;-139.96;53.46
7906;BME280;13291;40.472;-3.878;2023-06-05T03:33:05;53226.03;;;-139.96;53.70
7906;BME280;13291;40.472;-3.878;2023-06-05T03:35:32;53228.03;;;-139.96;53.66
7906;BME280;13291;40.472;-3.878;2023-06-05T03:38:00;53234.03;;;-139.96;53.76
7906;BME280;13291;40.472;-3.878;2023-06-05T03:40:29;53298.06;;;-139.96;54.07
7906;BME280;13291;40.472;-3.878;2023-06-05T03:42:56;53212.03;;;-139.96;53.91
7906;BME280;13291;40.472;-3.878;2023-06-05T03:45:23;53242.03;;;-139.96;54.35
7906;BME280;13291;40.472;-3.878;2023-06-05T03:47:53;53240.03;;;-139.96;54.40
7906;BME280;13291;40.472;-3.878;2023-06-05T03:50:21;53230.03;;;-139.96;54.23
7906;BME280;13291;40.472;-3.878;2023-06-05T03:52:49;53278.06;;;-139.96;54.33
7906;BME280;13291;40.472;-3.878;2023-06-05T03:55:19;53258.03;;;-139.96;54.29
7906;BME280;13291;40.472;-3.878;2023-06-05T03:57:47;53246.03;;;-139.96;54.28
7906;BME280;13291;40.472;-3.878;2023-06-05T04:00:15;53226.03;;;-139.96;54.17
7906;BME280;13291;40.472;-3.878;2023-06-05T04:02:42;53234.03;;;-139.96;54.41
7906;BME280;13291;40.472;-3.878;2023-06-05T04:05:09;53254.03;;;-139.96;54.05
7906;BME280;13291;40.472;-3.878;2023-06-05T04:07:38;53242.03;;;-139.96;54.10
7906;BME280;13291;40.472;-3.878;2023-06-05T04:10:06;53246.03;;;-139.96;54.28
7906;BME280;13291;40.472;-3.878;2023-06-05T04:12:33;53262.03;;;-139.96;54.45
7906;BME280;13291;40.472;-3.878;2023-06-05T04:15:01;53258.03;;;-139.96;53.97
7906;BME280;13291;40.472;-3.878;2023-06-05T04:17:28;53250.03;;;-139.96;54.37
7906;BME280;13291;40.472;-3.878;2023-06-05T04:19:55;53238.03;;;-139.96;54.15
7906;BME280;13291;40.472;-3.878;2023-06-05T04:22:22;53236.03;;;-139.96;54.09
7906;BME280;13291;40.472;-3.878;2023-06-05T04:24:49;53246.03;;;-139.96;54.30
7906;BME280;13291;40.472;-3.878;2023-06-05T04:27:16;53248.03;;;-139.96;54.25
7906;BME280;13291;40.472;-3.878;2023-06-05T04:29:43;53236.03;;;-139.96;54.13
7906;BME280;13291;40.472;-3.878;2023-06-05T04:32:14;53262.03;;;-139.96;54.08
7906;BME280;13291;40.472;-3.878;2023-06-05T04:34:42;53262.03;;;-139.96;54.17
7906;BME280;13291;40.472;-3.878;2023-06-05T04:37:08;53216.03;;;-139.96;54.19
7906;BME280;13291;40.472;-3.878;2023-06-05T04:39:35;53266.03;;;-139.96;54.10
7906;BME280;13291;40.472;-3.878;2023-06-05T04:42:02;53262.03;;;-139.96;54.23
7906;BME280;13291;40.472;-3.878;2023-06-05T04:44:29;53216.03;;;-139.96;54.07
7906;BME280;13291;40.472;-3.878;2023-06-05T04:46:56;53250.03;;;-139.96;54.01
7906;BME280;13291;40.472;-3.878;2023-06-05T04:49:25;53262.03;;;-139.96;53.94
7906;BME280;13291;40.472;-3.878;2023-06-05T04:51:52;53262.03;;;-139.96;53.91
7906;BME280;13291;40.472;-3.878;2023-06-05T04:54:22;53242.03;;;-139.96;54.09
7906;BME280;13291;40.472;-3.878;2023-06-05T04:56:49;53256.03;;;-139.96;53.91
7906;BME280;13291;40.472;-3.878;2023-06-05T04:59:16;53284.06;;;-139.96;53.91
7906;BME280;13291;40.472;-3.878;2023-06-05T05:01:43;53254.03;;;-139.96;54.22
7906;BME280;13291;40.472;-3.878;2023-06-05T05:04:10;53278.06;;;-139.96;54.05
7906;BME280;13291;40.472;-3.878;2023-06-05T05:06:39;53240.03;;;-139.96;54.13
7906;BME280;13291;40.472;-3.878;2023-06-05T05:09:12;53270.03;;;-139.96;54.42
7906;BME280;13291;40.472;-3.878;2023-06-05T05:11:40;53240.03;;;-139.96;54.71
7906;BME280;13291;40.472;-3.878;2023-06-05T05:14:06;53236.03;;;-139.96;54.30
7906;BME280;13291;40.472;-3.878;2023-06-05T05:16:33;53230.03;;;-139.96;54.55
7906;BME280;13291;40.472;-3.878;2023-06-05T05:19:00;53256.03;;;-139.96;54.60
7906;BME280;13291;40.472;-3.878;2023-06-05T05:21:27;53244.03;;;-139.96;54.65
7906;BME280;13291;40.472;-3.878;2023-06-05T05:23:55;53242.03;;;-139.96;54.71
7906;BME280;13291;40.472;-3.878;2023-06-05T05:26:22;53244.03;;;-139.96;54.74
7906;BME280;13291;40.472;-3.878;2023-06-05T05:28:49;53262.03;;;-139.96;55.23
7906;BME280;13291;40.472;-3.878;2023-06-05T05:31:16;53270.03;;;-139.96;54.99
7906;BME280;13291;40.472;-3.878;2023-06-05T05:33:43;53246.03;;;-139.96;55.35
7906;BME280;13291;40.472;-3.878;2023-06-05T05:36:10;53282.06;;;-139.96;55.39
7906;BME280;13291;40.472;-3.878;2023-06-05T05:38:37;53282.06;;;-139.96;55.70
7906;BME280;13291;40.472;-3.878;2023-06-05T05:41:05;53280.06;;;-139.96;55.83
7906;BME280;13291;40.472;-3.878;2023-06-05T05:43:32;53260.03;;;-139.96;55.66
7906;BME280;13291;40.472;-3.878;2023-06-05T05:45:59;53270.03;;;-139.96;55.73
7906;BME280;13291;40.472;-3.878;2023-06-05T05:48:25;53248.03;;;-139.96;55.91
7906;BME280;13291;40.472;-3.878;2023-06-05T05:50:52;53272.03;;;-139.96;56.05
7906;BME280;13291;40.472;-3.878;2023-06-05T05:53:19;53270.03;;;-139.96;56.01
7906;BME280;13291;40.472;-3.878;2023-06-05T05:55:46;53292.06;;;-139.96;56.12
7906;BME280;13291;40.472;-3.878;2023-06-05T05:58:14;53254.03;;;-139.96;56.24
7906;BME280;13291;40.472;-3.878;2023-06-05T06:00:42;53244.03;;;-139.96;56.24
7906;BME280;13291;40.472;-3.878;2023-06-05T06:03:09;53248.03;;;-139.96;56.15
7906;BME280;13291;40.472;-3.878;2023-06-05T06:05:36;53266.03;;;-139.96;56.08
7906;BME280;13291;40.472;-3.878;2023-06-05T06:08:04;53278.06;;;-139.96;56.19
7906;BME280;13291;40.472;-3.878;2023-06-05T06:10:31;53298.06;;;-139.96;56.19
7906;BME280;13291;40.472;-3.878;2023-06-05T06:12:58;53238.03;;;-139.96;56.02
7906;BME280;13291;40.472;-3.878;2023-06-05T06:15:27;53258.03;;;-139.96;55.84
7906;BME280;13291;40.472;-3.878;2023-06-05T06:17:54;53274.03;;;-139.96;56.06
7906;BME280;13291;40.472;-3.878;2023-06-05T06:20:22;53274.03;;;-139.96;56.59
7906;BME280;13291;40.472;-3.878;2023-06-05T06:22:49;53262.03;;;-139.96;56.54
7906;BME280;13291;40.472;-3.878;2023-06-05T06:25:20;53254.03;;;-139.96;56.39
7906;BME280;13291;40.472;-3.878;2023-06-05T06:27:51;53242.03;;;-139.96;55.82
7906;BME280;13291;40.472;-3.878;2023-06-05T06:30:19;53222.03;;;-139.96;55.19
7906;BME280;13291;40.472;-3.878;2023-06-05T06:32:48;53214.03;;;-139.96;54.26
7906;BME280;13291;40.472;-3.878;2023-06-05T06:35:15;53226.03;;;-139.96;53.66
7906;BME280;13291;40.472;-3.878;2023-06-05T06:37:42;53236.03;;;-139.96;54.10
7906;BME280;13291;40.472;-3.878;2023-06-05T06:40:10;53206.03;;;-139.96;54.09
7906;BME280;13291;40.472;-3.878;2023-06-05T06:42:38;53202.03;;;-139.96;54.37
7906;BME280;13291;40.472;-3.878;2023-06-05T06:45:05;53230.03;;;-139.96;54.27
7906;BME280;13291;40.472;-3.878;2023-06-05T06:47:32;53266.03;;;-139.96;54.31
7906;BME280;13291;40.472;-3.878;2023-06-05T06:50:01;53214.03;;;-139.96;54.50
7906;BME280;13291;40.472;-3.878;2023-06-05T06:52:28;53240.03;;;-139.96;53.49
7906;BME280;13291;40.472;-3.878;2023-06-05T06:54:55;53196.03;;;-139.96;53.96
7906;BME280;13291;40.472;-3.878;2023-06-05T06:57:22;53234.03;;;-139.96;53.46
7906;BME280;13291;40.472;-3.878;2023-06-05T06:59:49;53238.03;;;-139.96;54.29
7906;BME280;13291;40.472;-3.878;2023-06-05T07:02:18;53222.03;;;-139.96;54.63
7906;BME280;13291;40.472;-3.878;2023-06-05T07:04:45;53238.03;;;-139.96;54.67
7906;BME280;13291;40.472;-3.878;2023-06-05T07:07:16;53224.03;;;-139.96;53.91
7906;BME280;13291;40.472;-3.878;2023-06-05T07:09:44;53226.03;;;-139.96;54.50
7906;BME280;13291;40.472;-3.878;2023-06-05T07:12:13;53242.03;;;-139.96;54.39
7906;BME280;13291;40.472;-3.878;2023-06-05T07:14:41;53230.03;;;-139.96;53.51
7906;BME280;13291;40.472;-3.878;2023-06-05T07:17:08;53224.03;;;-139.96;53.91
7906;BME280;13291;40.472;-3.878;2023-06-05T07:19:35;53208.03;;;-139.96;53.91
7906;BME280;13291;40.472;-3.878;2023-06-05T07:22:03;53188.03;;;-139.96;54.11
7906;BME280;13291;40.472;-3.878;2023-06-05T07:24:33;53198.03;;;-139.96;53.21
7906;BME280;13291;40.472;-3.878;2023-06-05T07:27:03;53208.03;;;-139.96;52.90
7906;BME280;13291;40.472;-3.878;2023-06-05T07:29:30;53230.03;;;-139.96;53.13
7906;BME280;13291;40.472;-3.878;2023-06-05T07:31:58;53228.03;;;-139.96;53.09
7906;BME280;13291;40.472;-3.878;2023-06-05T07:34:26;53204.03;;;-139.96;53.35
7906;BME280;13291;40.472;-3.878;2023-06-05T07:36:53;53220.03;;;-139.96;53.77
7906;BME280;13291;40.472;-3.878;2023-06-05T07:39:21;53218.03;;;-139.96;53.73
7906;BME280;13291;40.472;-3.878;2023-06-05T07:41:49;53228.03;;;-139.96;54.58
7906;BME280;13291;40.472;-3.878;2023-06-05T07:44:17;53186.03;;;-139.96;55.25
7906;BME280;13291;40.472;-3.878;2023-06-05T07:46:45;53212.03;;;-139.96;55.49
7906;BME280;13291;40.472;-3.878;2023-06-05T07:49:13;53198.03;;;-139.96;55.35
7906;BME280;13291;40.472;-3.878;2023-06-05T07:51:41;53204.03;;;-139.96;54.88
7906;BME280;13291;40.472;-3.878;2023-06-05T07:54:10;53218.03;;;-139.96;54.62
7906;BME280;13291;40.472;-3.878;2023-06-05T07:56:37;53198.03;;;-139.96;54.52
7906;BME280;13291;40.472;-3.878;2023-06-05T07:59:07;53224.03;;;-139.96;54.96
7906;BME280;13291;40.472;-3.878;2023-06-05T08:01:36;53178.03;;;-139.96;55.23
7906;BME280;13291;40.472;-3.878;2023-06-05T08:04:03;53232.03;;;-139.96;54.97
7906;BME280;13291;40.472;-3.878;2023-06-05T08:06:31;53196.03;;;-139.96;54.88
7906;BME280;13291;40.472;-3.878;2023-06-05T08:08:58;53228.03;;;-139.96;54.81
7906;BME280;13291;40.472;-3.878;2023-06-05T08:11:25;53220.03;;;-139.96;54.97
7906;BME280;13291;40.472;-3.878;2023-06-05T08:13:53;53220.03;;;-139.96;55.35
7906;BME280;13291;40.472;-3.878;2023-06-05T08:16:22;53224.03;;;-139.96;55.46
7906;BME280;13291;40.472;-3.878;2023-06-05T08:18:49;53194.03;;;-139.96;56.38
7906;BME280;13291;40.472;-3.878;2023-06-05T08:21:16;53194.03;;;-139.96;56.28
7906;BME280;13291;40.472;-3.878;2023-06-05T08:23:43;53222.03;;;-139.96;55.92
7906;BME280;13291;40.472;-3.878;2023-06-05T08:26:09;53188.03;;;-139.96;55.33
7906;BME280;13291;40.472;-3.878;2023-06-05T08:28:38;53200.03;;;-139.96;55.11
7906;BME280;13291;40.472;-3.878;2023-06-05T08:31:05;53170.03;;;-139.96;54.25
7906;BME280;13291;40.472;-3.878;2023-06-05T08:33:34;53172.03;;;-139.96;54.44
7906;BME280;13291;40.472;-3.878;2023-06-05T08:36:01;53200.03;;;-139.96;54.63
7906;BME280;13291;40.472;-3.878;2023-06-05T08:38:28;53150.00;;;-139.96;53.32
7906;BME280;13291;40.472;-3.878;2023-06-05T08:41:02;53210.03;;;-139.96;54.15
7906;BME280;13291;40.472;-3.878;2023-06-05T08:43:30;53206.03;;;-139.96;51.98
7906;BME280;13291;40.472;-3.878;2023-06-05T08:45:58;53204.03;;;-139.96;53.13
7906;BME280;13291;40.472;-3.878;2023-06-05T08:48:25;53190.03;;;-139.96;53.84
7906;BME280;13291;40.472;-3.878;2023-06-05T08:50:54;53190.03;;;-139.96;54.00
7906;BME280;13291;40.472;-3.878;2023-06-05T08:53:23;53178.03;;;-139.96;53.49
7906;BME280;13291;40.472;-3.878;2023-06-05T08:55:54;53160.03;;;-139.96;53.39
7906;BME280;13291;40.472;-3.878;2023-06-05T08:58:21;53204.03;;;-139.96;53.21
7906;BME280;13291;40.472;-3.878;2023-06-05T09:00:49;53206.03;;;-139.96;53.31
7906;BME280;13291;40.472;-3.878;2023-06-05T09:03:16;53192.03;;;-139.96;51.46
7906;BME280;13291;40.472;-3.878;2023-06-05T09:05:46;53174.03;;;-139.96;51.17
7906;BME280;13291;40.472;-3.878;2023-06-05T09:08:15;53226.03;;;-139.96;51.25
7906;BME280;13291;40.472;-3.878;2023-06-05T09:10:43;53178.03;;;-139.96;52.00
7906;BME280;13291;40.472;-3.878;2023-06-05T09:13:10;53210.03;;;-139.96;53.77
7906;BME280;13291;40.472;-3.878;2023-06-05T09:15:37;53168.03;;;-139.96;53.15
7906;BME280;13291;40.472;-3.878;2023-06-05T09:18:09;53206.03;;;-139.96;54.67
7906;BME280;13291;40.472;-3.878;2023-06-05T09:20:38;53166.03;;;-139.96;54.99
7906;BME280;13291;40.472;-3.878;2023-06-05T09:23:23;53178.03;;;-139.96;54.13
7906;BME280;13291;40.472;-3.878;2023-06-05T09:25:52;53170.03;;;-139.96;51.44
7906;BME280;13291;40.472;-3.878;2023-06-05T09:28:19;53154.00;;;-139.96;51.39
7906;BME280;13291;40.472;-3.878;2023-06-05T09:30:59;53178.03;;;-139.96;52.26
7906;BME280;13291;40.472;-3.878;2023-06-05T09:33:28;53178.03;;;-139.96;51.48
7906;BME280;13291;40.472;-3.878;2023-06-05T09:36:02;53194.03;;;-139.96;51.05
7906;BME280;13291;40.472;-3.878;2023-06-05T09:38:32;53178.03;;;-139.96;51.10
7906;BME280;13291;40.472;-3.878;2023-06-05T09:41:03;53152.00;;;-139.96;52.10
7906;BME280;13291;40.472;-3.878;2023-06-05T09:43:31;53130.00;;;-139.96;51.50
7906;BME280;13291;40.472;-3.878;2023-06-05T09:45:58;53190.03;;;-139.96;51.92
7906;BME280;13291;40.472;-3.878;2023-06-05T09:48:24;53174.03;;;-139.96;50.71
7906;BME280;13291;40.472;-3.878;2023-06-05T09:50:53;53166.03;;;-139.96;52.13
7906;BME280;13291;40.472;-3.878;2023-06-05T09:53:20;53188.03;;;-139.96;51.92
7906;BME280;13291;40.472;-3.878;2023-06-05T09:55:49;53170.03;;;-139.96;50.68
7906;BME280;13291;40.472;-3.878;2023-06-05T09:58:17;53182.03;;;-139.96;48.47
7906;BME280;13291;40.472;-3.878;2023-06-05T10:00:46;53154.00;;;-139.96;48.74
7906;BME280;13291;40.472;-3.878;2023-06-05T10:03:14;53184.03;;;-139.96;49.81
7906;BME280;13291;40.472;-3.878;2023-06-05T10:05:44;53174.03;;;-139.96;50.53
7906;BME280;13291;40.472;-3.878;2023-06-05T10:08:12;53176.03;;;-139.96;48.93
7906;BME280;13291;40.472;-3.878;2023-06-05T10:10:40;53174.03;;;-139.96;49.63
7906;BME280;13291;40.472;-3.878;2023-06-05T10:13:09;53146.00;;;-139.96;50.72
7906;BME280;13291;40.472;-3.878;2023-06-05T10:15:38;53170.03;;;-139.96;51.67
7906;BME280;13291;40.472;-3.878;2023-06-05T10:18:06;53178.03;;;-139.96;50.30
7906;BME280;13291;40.472;-3.878;2023-06-05T10:20:34;53168.03;;;-139.96;49.38
7906;BME280;13291;40.472;-3.878;2023-06-05T10:23:03;53162.03;;;-139.96;50.36
7906;BME280;13291;40.472;-3.878;2023-06-05T10:25:33;53168.03;;;-139.96;49.67
7906;BME280;13291;40.472;-3.878;2023-06-05T10:31:26;53152.00;;;-139.96;47.40
7906;BME280;13291;40.472;-3.878;2023-06-05T10:34:13;53160.03;;;-139.96;45.12
7906;BME280;13291;40.472;-3.878;2023-06-05T10:37:04;53154.00;;;-139.96;46.57
7906;BME280;13291;40.472;-3.878;2023-06-05T10:39:35;53174.03;;;-139.96;46.82
7906;BME280;13291;40.472;-3.878;2023-06-05T10:42:02;53150.00;;;-139.96;45.70
7906;BME280;13291;40.472;-3.878;2023-06-05T10:44:39;53166.03;;;-139.96;46.70
7906;BME280;13291;40.472;-3.878;2023-06-05T10:50:24;53168.03;;;-139.96;45.14
7906;BME280;13291;40.472;-3.878;2023-06-05T10:52:53;53142.00;;;-139.96;45.69
7906;BME280;13291;40.472;-3.878;2023-06-05T10:55:21;53166.03;;;-139.96;44.83
7906;BME280;13291;40.472;-3.878;2023-06-05T10:58:05;53160.03;;;-139.96;44.81
7906;BME280;13291;40.472;-3.878;2023-06-05T11:00:34;53148.00;;;-139.96;44.33
7906;BME280;13291;40.472;-3.878;2023-06-05T11:03:01;53152.00;;;-139.96;44.09
7906;BME280;13291;40.472;-3.878;2023-06-05T11:05:29;53136.00;;;-139.96;44.83
7906;BME280;13291;40.472;-3.878;2023-06-05T11:08:13;53148.00;;;-139.96;45.12
7906;BME280;13291;40.472;-3.878;2023-06-05T11:11:02;53140.00;;;-139.96;43.56
7906;BME280;13291;40.472;-3.878;2023-06-05T11:13:56;53170.03;;;-139.96;44.70
7906;BME280;13291;40.472;-3.878;2023-06-05T11:16:30;53130.00;;;-139.96;43.33
7906;BME280;13291;40.472;-3.878;2023-06-05T11:22:06;53134.00;;;-139.96;44.18
7906;BME280;13291;40.472;-3.878;2023-06-05T11:24:34;53146.00;;;-139.96;44.53
7906;BME280;13291;40.472;-3.878;2023-06-05T11:27:02;53106.00;;;-139.96;45.21
7906;BME280;13291;40.472;-3.878;2023-06-05T11:29:29;53144.00;;;-139.96;43.05
7906;BME280;13291;40.472;-3.878;2023-06-05T11:31:56;53116.00;;;-139.96;42.65
7906;BME280;13291;40.472;-3.878;2023-06-05T11:34:23;53136.00;;;-139.96;44.79
7906;BME280;13291;40.472;-3.878;2023-06-05T11:36:51;53128.00;;;-139.96;45.26
7906;BME280;13291;40.472;-3.878;2023-06-05T11:39:20;53122.00;;;-139.96;46.26
7906;BME280;13291;40.472;-3.878;2023-06-05T11:41:49;53138.00;;;-139.96;44.14
7906;BME280;13291;40.472;-3.878;2023-06-05T11:44:29;53116.00;;;-139.96;44.56
7906;BME280;13291;40.472;-3.878;2023-06-05T11:46:57;53110.00;;;-139.96;44.60
7906;BME280;13291;40.472;-3.878;2023-06-05T11:49:25;53126.00;;;-139.96;41.39
7906;BME280;13291;40.472;-3.878;2023-06-05T11:51:53;53122.00;;;-139.96;40.95
7906;BME280;13291;40.472;-3.878;2023-06-05T11:54:29;53102.00;;;-139.96;40.98
7906;BME280;13291;40.472;-3.878;2023-06-05T11:57:00;53096.00;;;-139.96;40.20
7906;BME280;13291;40.472;-3.878;2023-06-05T11:59:34;53098.00;;;-139.96;39.91
7906;BME280;13291;40.472;-3.878;2023-06-05T12:02:01;53108.00;;;-139.96;40.60
7906;BME280;13291;40.472;-3.878;2023-06-05T12:04:28;53108.00;;;-139.96;40.83
7906;BME280;13291;40.472;-3.878;2023-06-05T12:06:56;53124.00;;;-139.96;41.86
7906;BME280;13291;40.472;-3.878;2023-06-05T12:09:25;53102.00;;;-139.96;41.15
7906;BME280;13291;40.472;-3.878;2023-06-05T12:12:04;53122.00;;;-139.96;40.21
7906;BME280;13291;40.472;-3.878;2023-06-05T12:14:32;53098.00;;;-139.96;39.87
7906;BME280;13291;40.472;-3.878;2023-06-05T12:16:59;53076.00;;;-139.96;40.02
7906;BME280;13291;40.472;-3.878;2023-06-05T12:19:28;53092.00;;;-139.96;41.78
7906;BME280;13291;40.472;-3.878;2023-06-05T12:22:02;53114.00;;;-139.96;40.09
7906;BME280;13291;40.472;-3.878;2023-06-05T12:24:29;53114.00;;;-139.96;39.60
7906;BME280;13291;40.472;-3.878;2023-06-05T12:26:59;53094.00;;;-139.96;41.13
7906;BME280;13291;40.472;-3.878;2023-06-05T12:29:28;53084.00;;;-139.96;40.48
7906;BME280;13291;40.472;-3.878;2023-06-05T12:31:56;53106.00;;;-139.96;40.58
7906;BME280;13291;40.472;-3.878;2023-06-05T12:34:40;53100.00;;;-139.96;38.70
7906;BME280;13291;40.472;-3.878;2023-06-05T12:37:10;53098.00;;;-139.96;39.27
7906;BME280;13291;40.472;-3.878;2023-06-05T12:39:38;53106.00;;;-139.96;39.44
7906;BME280;13291;40.472;-3.878;2023-06-05T12:42:08;53118.00;;;-139.96;39.11
7906;BME280;13291;40.472;-3.878;2023-06-05T12:44:34;53132.00;;;-139.96;39.33
7906;BME280;13291;40.472;-3.878;2023-06-05T12:47:01;53118.00;;;-139.96;39.68
7906;BME280;13291;40.472;-3.878;2023-06-05T12:49:28;53114.00;;;-139.96;39.81
7906;BME280;13291;40.472;-3.878;2023-06-05T12:51:55;53096.00;;;-139.96;39.30
7906;BME280;13291;40.472;-3.878;2023-06-05T12:54:23;53118.00;;;-139.96;38.95
7906;BME280;13291;40.472;-3.878;2023-06-05T12:56:50;53124.00;;;-139.96;38.85